sensor_id;sensor_type;location;lat;lon;timestamp;temperature;humidity
13572;DHT22;6857;53.484;10.216;2023-04-19T00:01:18;6.30;99.90
13572;DHT22;6857;53.484;10.216;2023-04-19T00:03:44;6.30;99.90
13572;DHT22;6857;53.484;10.216;2023-04-19T00:06:10;6.30;99.90
13572;DHT22;6857;53.484;10.216;2023-04-19T00:08:38;6.30;99.90
13572;DHT22;6857;53.484;10.216;2023-04-19T00:11:04;6.30;99.90
13572;DHT22;6857;53.484;10.216;2023-04-19T00:13:29;6.30;99.90
13572;DHT22;6857;53.484;10.216;2023-04-19T00:15:55;6.30;99.90
13572;DHT22;6857;53.484;10.216;2023-04-19T00:18:20;6.30;99.90
13572;DHT22;6857;53.484;10.216;2023-04-19T00:20:46;6.30;99.90
13572;DHT22;6857;53.484;10.216;2023-04-19T00:23:13;6.30;99.90
13572;DHT22;6857;53.484;10.216;2023-04-19T00:25:38;6.20;99.90
13572;DHT22;6857;53.484;10.216;2023-04-19T00:28:04;6.20;99.90
13572;DHT22;6857;53.484;10.216;2023-04-19T00:30:30;6.20;99.90
13572;DHT22;6857;53.484;10.216;2023-04-19T00:32:55;6.20;99.90
13572;DHT22;6857;53.484;10.216;2023-04-19T00:35:21;6.10;99.90
13572;DHT22;6857;53.484;10.216;2023-04-19T00:37:46;6.20;99.90
13572;DHT22;6857;53.484;10.216;2023-04-19T00:40:12;6.30;99.90
13572;DHT22;6857;53.484;10.216;2023-04-19T00:42:37;6.10;99.90
13572;DHT22;6857;53.484;10.216;2023-04-19T00:45:03;6.10;99.90
13572;DHT22;6857;53.484;10.216;2023-04-19T00:47:29;6.10;99.90
13572;DHT22;6857;53.484;10.216;2023-04-19T00:49:55;6.10;99.90
13572;DHT22;6857;53.484;10.216;2023-04-19T00:52:21;6.00;99.90
13572;DHT22;6857;53.484;10.216;2023-04-19T00:54:47;6.00;99.90
13572;DHT22;6857;53.484;10.216;2023-04-19T00:57:14;6.00;99.90
13572;DHT22;6857;53.484;10.216;2023-04-19T00:59:40;6.10;99.90
13572;DHT22;6857;53.484;10.216;2023-04-19T01:02:06;6.10;99.90
13572;DHT22;6857;53.484;10.216;2023-04-19T01:04:32;6.00;99.90
13572;DHT22;6857;53.484;10.216;2023-04-19T01:06:57;6.00;99.90
13572;DHT22;6857;53.484;10.216;2023-04-19T01:09:23;6.00;99.90
13572;DHT22;6857;53.484;10.216;2023-04-19T01:11:49;6.00;99.90
13572;DHT22;6857;53.484;10.216;2023-04-19T01:14:15;6.00;99.90
13572;DHT22;6857;53.484;10.216;2023-04-19T01:16:40;5.90;99.90
13572;DHT22;6857;53.484;10.216;2023-04-19T01:19:06;5.90;99.90
13572;DHT22;6857;53.484;10.216;2023-04-19T01:21:32;6.00;99.90
13572;DHT22;6857;53.484;10.216;2023-04-19T01:23:57;5.90;99.90
13572;DHT22;6857;53.484;10.216;2023-04-19T01:26:23;5.90;99.90
13572;DHT22;6857;53.484;10.216;2023-04-19T01:28:49;5.90;99.90
13572;DHT22;6857;53.484;10.216;2023-04-19T01:31:14;6.00;99.90
13572;DHT22;6857;53.484;10.216;2023-04-19T01:33:40;5.90;99.90
13572;DHT22;6857;53.484;10.216;2023-04-19T01:36:06;5.90;99.90
13572;DHT22;6857;53.484;10.216;2023-04-19T01:38:32;5.90;99.90
13572;DHT22;6857;53.484;10.216;2023-04-19T01:40:57;5.80;99.90
13572;DHT22;6857;53.484;10.216;2023-04-19T01:43:23;5.90;99.90
13572;DHT22;6857;53.484;10.216;2023-04-19T01:45:48;5.60;99.90
13572;DHT22;6857;53.484;10.216;2023-04-19T01:50:40;5.70;99.90
13572;DHT22;6857;53.484;10.216;2023-04-19T01:53:05;5.70;99.90
13572;DHT22;6857;53.484;10.216;2023-04-19T01:55:31;5.80;99.90
13572;DHT22;6857;53.484;10.216;2023-04-19T01:57:56;5.80;99.90
13572;DHT22;6857;53.484;10.216;2023-04-19T02:00:22;5.80;99.90
13572;DHT22;6857;53.484;10.216;2023-04-19T02:02:48;5.80;99.90
13572;DHT22;6857;53.484;10.216;2023-04-19T02:05:14;5.70;99.90
13572;DHT22;6857;53.484;10.216;2023-04-19T02:07:39;5.60;99.90
13572;DHT22;6857;53.484;10.216;2023-04-19T02:15:02;5.70;99.90
13572;DHT22;6857;53.484;10.216;2023-04-19T02:22:21;5.60;99.90
13572;DHT22;6857;53.484;10.216;2023-04-19T02:24:51;5.70;99.90
13572;DHT22;6857;53.484;10.216;2023-04-19T02:27:16;5.60;99.90
13572;DHT22;6857;53.484;10.216;2023-04-19T02:29:42;5.70;99.90
13572;DHT22;6857;53.484;10.216;2023-04-19T02:32:10;5.60;99.90
13572;DHT22;6857;53.484;10.216;2023-04-19T02:34:36;5.60;99.90
13572;DHT22;6857;53.484;10.216;2023-04-19T02:37:02;5.60;99.90
13572;DHT22;6857;53.484;10.216;2023-04-19T02:39:28;5.60;99.90
13572;DHT22;6857;53.484;10.216;2023-04-19T02:41:54;5.60;99.90
13572;DHT22;6857;53.484;10.216;2023-04-19T02:44:21;5.60;99.90
13572;DHT22;6857;53.484;10.216;2023-04-19T02:46:51;5.60;99.90
13572;DHT22;6857;53.484;10.216;2023-04-19T02:49:17;5.60;99.90
13572;DHT22;6857;53.484;10.216;2023-04-19T02:51:43;5.60;99.90
13572;DHT22;6857;53.484;10.216;2023-04-19T02:54:08;5.60;99.90
13572;DHT22;6857;53.484;10.216;2023-04-19T02:56:34;5.40;99.90
13572;DHT22;6857;53.484;10.216;2023-04-19T02:59:00;5.50;99.90
13572;DHT22;6857;53.484;10.216;2023-04-19T03:01:26;5.50;99.90
13572;DHT22;6857;53.484;10.216;2023-04-19T03:03:51;5.50;99.90
13572;DHT22;6857;53.484;10.216;2023-04-19T03:06:18;5.50;99.90
13572;DHT22;6857;53.484;10.216;2023-04-19T03:08:44;5.40;99.90
13572;DHT22;6857;53.484;10.216;2023-04-19T03:11:11;5.50;99.90
13572;DHT22;6857;53.484;10.216;2023-04-19T03:13:37;5.40;99.90
13572;DHT22;6857;53.484;10.216;2023-04-19T03:16:04;5.50;99.90
13572;DHT22;6857;53.484;10.216;2023-04-19T03:18:30;5.40;99.90
13572;DHT22;6857;53.484;10.216;2023-04-19T03:20:56;5.40;99.90
13572;DHT22;6857;53.484;10.216;2023-04-19T03:23:21;5.40;99.90
13572;DHT22;6857;53.484;10.216;2023-04-19T03:25:49;5.20;99.90
13572;DHT22;6857;53.484;10.216;2023-04-19T03:28:17;5.30;99.90
13572;DHT22;6857;53.484;10.216;2023-04-19T03:30:43;5.30;99.90
13572;DHT22;6857;53.484;10.216;2023-04-19T03:35:34;5.20;99.90
13572;DHT22;6857;53.484;10.216;2023-04-19T03:38:00;5.30;99.90
13572;DHT22;6857;53.484;10.216;2023-04-19T03:40:25;4.40;99.90
13572;DHT22;6857;53.484;10.216;2023-04-19T03:42:51;5.30;99.90
13572;DHT22;6857;53.484;10.216;2023-04-19T03:45:17;5.20;99.90
13572;DHT22;6857;53.484;10.216;2023-04-19T03:47:43;5.30;99.90
13572;DHT22;6857;53.484;10.216;2023-04-19T03:50:08;5.30;99.90
13572;DHT22;6857;53.484;10.216;2023-04-19T03:52:34;5.40;99.90
13572;DHT22;6857;53.484;10.216;2023-04-19T03:55:00;5.40;99.90
13572;DHT22;6857;53.484;10.216;2023-04-19T03:59:52;5.30;99.90
13572;DHT22;6857;53.484;10.216;2023-04-19T04:02:17;5.20;99.90
13572;DHT22;6857;53.484;10.216;2023-04-19T04:04:43;5.30;99.90
13572;DHT22;6857;53.484;10.216;2023-04-19T04:07:09;5.30;99.90
13572;DHT22;6857;53.484;10.216;2023-04-19T04:12:01;5.30;99.90
13572;DHT22;6857;53.484;10.216;2023-04-19T04:14:27;5.20;99.90
13572;DHT22;6857;53.484;10.216;2023-04-19T04:16:53;5.40;99.90
13572;DHT22;6857;53.484;10.216;2023-04-19T04:19:18;5.40;99.90
13572;DHT22;6857;53.484;10.216;2023-04-19T04:21:46;5.40;99.90
13572;DHT22;6857;53.484;10.216;2023-04-19T04:24:11;5.40;99.90
13572;DHT22;6857;53.484;10.216;2023-04-19T04:26:37;5.40;99.90
13572;DHT22;6857;53.484;10.216;2023-04-19T04:29:04;5.50;99.90
13572;DHT22;6857;53.484;10.216;2023-04-19T04:31:29;5.40;99.90
13572;DHT22;6857;53.484;10.216;2023-04-19T04:33:56;5.40;99.90
13572;DHT22;6857;53.484;10.216;2023-04-19T04:36:21;5.40;99.90
13572;DHT22;6857;53.484;10.216;2023-04-19T04:38:47;5.40;99.90
13572;DHT22;6857;53.484;10.216;2023-04-19T04:41:12;5.50;99.90
13572;DHT22;6857;53.484;10.216;2023-04-19T04:43:38;5.50;99.90
13572;DHT22;6857;53.484;10.216;2023-04-19T04:46:04;5.40;99.90
13572;DHT22;6857;53.484;10.216;2023-04-19T04:48:30;5.60;99.90
13572;DHT22;6857;53.484;10.216;2023-04-19T04:50:56;5.60;99.90
13572;DHT22;6857;53.484;10.216;2023-04-19T04:53:25;5.70;99.90
13572;DHT22;6857;53.484;10.216;2023-04-19T04:55:52;5.40;99.90
13572;DHT22;6857;53.484;10.216;2023-04-19T04:58:18;5.70;99.90
13572;DHT22;6857;53.484;10.216;2023-04-19T05:00:44;5.70;99.90
13572;DHT22;6857;53.484;10.216;2023-04-19T05:03:09;5.90;99.90
13572;DHT22;6857;53.484;10.216;2023-04-19T05:05:35;5.80;99.90
13572;DHT22;6857;53.484;10.216;2023-04-19T05:08:00;6.10;99.90
13572;DHT22;6857;53.484;10.216;2023-04-19T05:10:26;5.90;99.90
13572;DHT22;6857;53.484;10.216;2023-04-19T05:12:52;6.00;99.90
13572;DHT22;6857;53.484;10.216;2023-04-19T05:15:17;6.00;99.90
13572;DHT22;6857;53.484;10.216;2023-04-19T05:17:43;6.00;99.90
13572;DHT22;6857;53.484;10.216;2023-04-19T05:20:09;6.10;99.90
13572;DHT22;6857;53.484;10.216;2023-04-19T05:22:34;6.10;99.90
13572;DHT22;6857;53.484;10.216;2023-04-19T05:25:00;6.10;99.90
13572;DHT22;6857;53.484;10.216;2023-04-19T05:27:26;6.10;99.90
13572;DHT22;6857;53.484;10.216;2023-04-19T05:29:52;6.20;99.90
13572;DHT22;6857;53.484;10.216;2023-04-19T05:32:17;6.00;99.90
13572;DHT22;6857;53.484;10.216;2023-04-19T05:34:43;6.20;99.90
13572;DHT22;6857;53.484;10.216;2023-04-19T05:37:09;6.30;99.90
13572;DHT22;6857;53.484;10.216;2023-04-19T05:39:34;6.40;99.90
13572;DHT22;6857;53.484;10.216;2023-04-19T05:42:00;6.40;99.90
13572;DHT22;6857;53.484;10.216;2023-04-19T05:44:26;6.50;99.90
13572;DHT22;6857;53.484;10.216;2023-04-19T05:46:51;6.60;99.90
13572;DHT22;6857;53.484;10.216;2023-04-19T05:49:17;6.60;99.90
13572;DHT22;6857;53.484;10.216;2023-04-19T05:51:42;6.70;99.90
13572;DHT22;6857;53.484;10.216;2023-04-19T05:54:08;6.70;99.90
13572;DHT22;6857;53.484;10.216;2023-04-19T05:56:37;6.80;99.90
13572;DHT22;6857;53.484;10.216;2023-04-19T05:59:02;6.80;99.90
13572;DHT22;6857;53.484;10.216;2023-04-19T06:01:28;7.00;99.90
13572;DHT22;6857;53.484;10.216;2023-04-19T06:03:54;7.00;99.90
13572;DHT22;6857;53.484;10.216;2023-04-19T06:06:21;7.00;99.90
13572;DHT22;6857;53.484;10.216;2023-04-19T06:08:49;7.10;99.90
13572;DHT22;6857;53.484;10.216;2023-04-19T06:13:41;7.20;99.90
13572;DHT22;6857;53.484;10.216;2023-04-19T06:18:35;7.40;99.90
13572;DHT22;6857;53.484;10.216;2023-04-19T06:21:01;7.50;99.90
13572;DHT22;6857;53.484;10.216;2023-04-19T06:23:27;7.60;99.90
13572;DHT22;6857;53.484;10.216;2023-04-19T06:25:52;7.80;99.90
13572;DHT22;6857;53.484;10.216;2023-04-19T06:28:18;7.90;99.90
13572;DHT22;6857;53.484;10.216;2023-04-19T06:30:44;8.20;99.90
13572;DHT22;6857;53.484;10.216;2023-04-19T06:33:09;8.30;99.90
13572;DHT22;6857;53.484;10.216;2023-04-19T06:35:35;8.60;99.90
13572;DHT22;6857;53.484;10.216;2023-04-19T06:38:01;8.90;99.90
13572;DHT22;6857;53.484;10.216;2023-04-19T06:40:27;9.10;99.90
13572;DHT22;6857;53.484;10.216;2023-04-19T06:42:56;8.90;99.90
13572;DHT22;6857;53.484;10.216;2023-04-19T06:47:47;8.70;99.90
13572;DHT22;6857;53.484;10.216;2023-04-19T06:55:06;8.80;99.90
13572;DHT22;6857;53.484;10.216;2023-04-19T06:57:34;9.00;99.90
13572;DHT22;6857;53.484;10.216;2023-04-19T07:02:28;9.20;99.90
13572;DHT22;6857;53.484;10.216;2023-04-19T07:04:54;9.20;99.90
13572;DHT22;6857;53.484;10.216;2023-04-19T07:07:19;9.30;99.90
13572;DHT22;6857;53.484;10.216;2023-04-19T07:09:45;9.40;99.90
13572;DHT22;6857;53.484;10.216;2023-04-19T07:12:10;9.50;99.90
13572;DHT22;6857;53.484;10.216;2023-04-19T07:14:36;9.50;99.90
13572;DHT22;6857;53.484;10.216;2023-04-19T07:17:03;9.70;99.90
13572;DHT22;6857;53.484;10.216;2023-04-19T07:19:30;9.70;99.90
13572;DHT22;6857;53.484;10.216;2023-04-19T07:21:55;9.80;99.90
13572;DHT22;6857;53.484;10.216;2023-04-19T07:24:21;10.00;99.90
13572;DHT22;6857;53.484;10.216;2023-04-19T07:26:46;10.00;99.90
13572;DHT22;6857;53.484;10.216;2023-04-19T07:29:12;10.10;99.90
13572;DHT22;6857;53.484;10.216;2023-04-19T07:31:37;10.10;99.90
13572;DHT22;6857;53.484;10.216;2023-04-19T07:34:03;10.10;99.90
13572;DHT22;6857;53.484;10.216;2023-04-19T07:36:29;10.20;99.90
13572;DHT22;6857;53.484;10.216;2023-04-19T07:38:56;10.20;99.90
13572;DHT22;6857;53.484;10.216;2023-04-19T07:41:21;10.20;99.90
13572;DHT22;6857;53.484;10.216;2023-04-19T07:46:14;10.40;99.90
13572;DHT22;6857;53.484;10.216;2023-04-19T07:48:42;10.70;99.90
13572;DHT22;6857;53.484;10.216;2023-04-19T07:51:12;10.80;99.90
13572;DHT22;6857;53.484;10.216;2023-04-19T07:53:39;10.80;99.90
13572;DHT22;6857;53.484;10.216;2023-04-19T07:56:06;10.70;99.90
13572;DHT22;6857;53.484;10.216;2023-04-19T07:58:33;10.80;99.90
13572;DHT22;6857;53.484;10.216;2023-04-19T08:03:25;11.10;99.90
13572;DHT22;6857;53.484;10.216;2023-04-19T08:05:51;11.10;99.90
13572;DHT22;6857;53.484;10.216;2023-04-19T08:08:17;11.20;99.90
13572;DHT22;6857;53.484;10.216;2023-04-19T08:10:42;11.20;99.90
13572;DHT22;6857;53.484;10.216;2023-04-19T08:13:08;11.20;99.90
13572;DHT22;6857;53.484;10.216;2023-04-19T08:15:34;11.00;99.90
13572;DHT22;6857;53.484;10.216;2023-04-19T08:18:00;11.10;99.90
13572;DHT22;6857;53.484;10.216;2023-04-19T08:20:29;11.20;99.90
13572;DHT22;6857;53.484;10.216;2023-04-19T08:22:55;11.40;99.90
13572;DHT22;6857;53.484;10.216;2023-04-19T08:25:21;11.50;99.90
13572;DHT22;6857;53.484;10.216;2023-04-19T08:27:51;11.50;99.90
13572;DHT22;6857;53.484;10.216;2023-04-19T08:30:16;11.60;99.90
13572;DHT22;6857;53.484;10.216;2023-04-19T08:32:42;11.60;99.90
13572;DHT22;6857;53.484;10.216;2023-04-19T08:35:08;11.70;99.90
13572;DHT22;6857;53.484;10.216;2023-04-19T08:37:33;11.60;99.90
13572;DHT22;6857;53.484;10.216;2023-04-19T08:39:59;11.70;99.90
13572;DHT22;6857;53.484;10.216;2023-04-19T08:42:25;12.60;99.90
13572;DHT22;6857;53.484;10.216;2023-04-19T08:44:52;11.60;99.90
13572;DHT22;6857;53.484;10.216;2023-04-19T08:47:19;11.50;99.90
13572;DHT22;6857;53.484;10.216;2023-04-19T08:49:46;11.60;99.90
13572;DHT22;6857;53.484;10.216;2023-04-19T08:52:12;11.70;99.90
13572;DHT22;6857;53.484;10.216;2023-04-19T08:54:40;11.70;99.90
13572;DHT22;6857;53.484;10.216;2023-04-19T08:57:05;11.70;99.90
13572;DHT22;6857;53.484;10.216;2023-04-19T08:59:33;11.90;99.90
13572;DHT22;6857;53.484;10.216;2023-04-19T09:02:00;12.00;99.90
13572;DHT22;6857;53.484;10.216;2023-04-19T09:04:26;12.00;99.90
13572;DHT22;6857;53.484;10.216;2023-04-19T09:06:52;12.00;99.90
13572;DHT22;6857;53.484;10.216;2023-04-19T09:09:29;12.00;99.90
13572;DHT22;6857;53.484;10.216;2023-04-19T09:11:55;12.10;99.90
13572;DHT22;6857;53.484;10.216;2023-04-19T09:14:26;12.20;99.90
13572;DHT22;6857;53.484;10.216;2023-04-19T09:16:52;12.50;99.90
13572;DHT22;6857;53.484;10.216;2023-04-19T09:19:18;12.40;99.90
13572;DHT22;6857;53.484;10.216;2023-04-19T09:21:44;12.50;99.90
13572;DHT22;6857;53.484;10.216;2023-04-19T09:24:10;12.70;99.90
13572;DHT22;6857;53.484;10.216;2023-04-19T09:26:36;12.80;99.90
13572;DHT22;6857;53.484;10.216;2023-04-19T09:29:06;12.90;99.90
13572;DHT22;6857;53.484;10.216;2023-04-19T09:31:36;12.90;99.90
13572;DHT22;6857;53.484;10.216;2023-04-19T09:34:16;12.60;99.90
13572;DHT22;6857;53.484;10.216;2023-04-19T09:36:42;12.70;99.90
13572;DHT22;6857;53.484;10.216;2023-04-19T09:39:08;12.70;99.90
13572;DHT22;6857;53.484;10.216;2023-04-19T09:41:35;12.90;99.90
13572;DHT22;6857;53.484;10.216;2023-04-19T09:44:14;12.90;99.90
13572;DHT22;6857;53.484;10.216;2023-04-19T09:46:41;12.80;99.90
13572;DHT22;6857;53.484;10.216;2023-04-19T09:51:40;12.30;99.90
13572;DHT22;6857;53.484;10.216;2023-04-19T09:54:08;12.50;99.90
13572;DHT22;6857;53.484;10.216;2023-04-19T09:56:35;12.90;99.90
13572;DHT22;6857;53.484;10.216;2023-04-19T09:59:02;12.80;99.90
13572;DHT22;6857;53.484;10.216;2023-04-19T10:01:29;12.90;99.90
13572;DHT22;6857;53.484;10.216;2023-04-19T10:03:57;13.00;99.90
13572;DHT22;6857;53.484;10.216;2023-04-19T10:06:23;12.90;99.90
13572;DHT22;6857;53.484;10.216;2023-04-19T10:08:49;12.90;99.90
13572;DHT22;6857;53.484;10.216;2023-04-19T10:11:15;13.00;99.90
13572;DHT22;6857;53.484;10.216;2023-04-19T10:13:42;12.80;99.80
13572;DHT22;6857;53.484;10.216;2023-04-19T10:16:09;12.80;99.90
13572;DHT22;6857;53.484;10.216;2023-04-19T10:18:35;12.70;99.90
13572;DHT22;6857;53.484;10.216;2023-04-19T10:21:05;12.70;99.80
13572;DHT22;6857;53.484;10.216;2023-04-19T10:23:32;12.70;99.40
13572;DHT22;6857;53.484;10.216;2023-04-19T10:25:58;12.80;99.90
13572;DHT22;6857;53.484;10.216;2023-04-19T10:28:24;12.90;99.80
13572;DHT22;6857;53.484;10.216;2023-04-19T10:30:54;13.10;98.20
13572;DHT22;6857;53.484;10.216;2023-04-19T10:33:34;13.00;98.50
13572;DHT22;6857;53.484;10.216;2023-04-19T10:36:01;13.00;99.10
13572;DHT22;6857;53.484;10.216;2023-04-19T10:41:02;13.40;95.00
13572;DHT22;6857;53.484;10.216;2023-04-19T10:43:37;13.60;93.80
13572;DHT22;6857;53.484;10.216;2023-04-19T10:48:33;13.60;93.20
13572;DHT22;6857;53.484;10.216;2023-04-19T10:51:01;13.50;92.00
13572;DHT22;6857;53.484;10.216;2023-04-19T10:56:13;13.40;91.80
13572;DHT22;6857;53.484;10.216;2023-04-19T11:09:30;13.60;93.80
13572;DHT22;6857;53.484;10.216;2023-04-19T11:12:02;13.60;93.40
13572;DHT22;6857;53.484;10.216;2023-04-19T11:14:34;13.40;92.30
13572;DHT22;6857;53.484;10.216;2023-04-19T11:17:03;13.50;92.60
13572;DHT22;6857;53.484;10.216;2023-04-19T11:19:29;13.50;93.20
13572;DHT22;6857;53.484;10.216;2023-04-19T11:21:57;13.20;94.80
13572;DHT22;6857;53.484;10.216;2023-04-19T11:24:24;13.20;94.90
13572;DHT22;6857;53.484;10.216;2023-04-19T11:26:49;13.30;95.30
13572;DHT22;6857;53.484;10.216;2023-04-19T11:29:15;13.30;94.90
13572;DHT22;6857;53.484;10.216;2023-04-19T11:31:45;13.40;96.10
13572;DHT22;6857;53.484;10.216;2023-04-19T11:34:11;13.40;96.80
13572;DHT22;6857;53.484;10.216;2023-04-19T11:36:50;13.30;95.10
13572;DHT22;6857;53.484;10.216;2023-04-19T11:39:16;12.90;96.60
13572;DHT22;6857;53.484;10.216;2023-04-19T11:41:41;13.10;97.00
13572;DHT22;6857;53.484;10.216;2023-04-19T11:44:16;13.20;97.10
13572;DHT22;6857;53.484;10.216;2023-04-19T11:47:00;13.20;96.90
13572;DHT22;6857;53.484;10.216;2023-04-19T11:49:28;13.20;96.70
13572;DHT22;6857;53.484;10.216;2023-04-19T12:16:44;16.00;89.70
13572;DHT22;6857;53.484;10.216;2023-04-19T12:19:11;17.20;87.50
13572;DHT22;6857;53.484;10.216;2023-04-19T12:21:42;16.90;88.50
13572;DHT22;6857;53.484;10.216;2023-04-19T12:24:08;16.80;88.30
13572;DHT22;6857;53.484;10.216;2023-04-19T12:26:34;16.70;88.10
13572;DHT22;6857;53.484;10.216;2023-04-19T12:29:01;15.80;89.40
13572;DHT22;6857;53.484;10.216;2023-04-19T12:31:27;15.80;89.80
13572;DHT22;6857;53.484;10.216;2023-04-19T12:33:53;16.20;89.00
13572;DHT22;6857;53.484;10.216;2023-04-19T12:36:19;16.70;86.10
13572;DHT22;6857;53.484;10.216;2023-04-19T12:38:45;16.40;84.50
13572;DHT22;6857;53.484;10.216;2023-04-19T12:41:11;16.30;85.30
13572;DHT22;6857;53.484;10.216;2023-04-19T12:43:37;16.00;85.50
13572;DHT22;6857;53.484;10.216;2023-04-19T12:46:03;15.50;84.70
13572;DHT22;6857;53.484;10.216;2023-04-19T12:48:29;15.30;86.30
13572;DHT22;6857;53.484;10.216;2023-04-19T12:50:54;15.80;86.30
13572;DHT22;6857;53.484;10.216;2023-04-19T12:53:20;16.00;86.20
13572;DHT22;6857;53.484;10.216;2023-04-19T12:55:48;15.70;87.70
13572;DHT22;6857;53.484;10.216;2023-04-19T12:58:17;15.40;87.30
13572;DHT22;6857;53.484;10.216;2023-04-19T13:00:43;15.20;87.20
13572;DHT22;6857;53.484;10.216;2023-04-19T13:03:08;15.10;87.70
13572;DHT22;6857;53.484;10.216;2023-04-19T13:05:35;15.10;88.90
13572;DHT22;6857;53.484;10.216;2023-04-19T13:08:00;15.60;88.40
13572;DHT22;6857;53.484;10.216;2023-04-19T13:10:26;15.60;86.60
13572;DHT22;6857;53.484;10.216;2023-04-19T13:12:51;15.30;88.10
13572;DHT22;6857;53.484;10.216;2023-04-19T13:15:17;15.10;87.90
13572;DHT22;6857;53.484;10.216;2023-04-19T13:17:42;15.20;89.20
13572;DHT22;6857;53.484;10.216;2023-04-19T13:20:08;15.50;89.20
13572;DHT22;6857;53.484;10.216;2023-04-19T13:22:34;15.90;88.40
13572;DHT22;6857;53.484;10.216;2023-04-19T13:25:00;16.10;87.60
13572;DHT22;6857;53.484;10.216;2023-04-19T13:27:25;16.20;85.30
13572;DHT22;6857;53.484;10.216;2023-04-19T13:29:53;16.70;85.40
13572;DHT22;6857;53.484;10.216;2023-04-19T13:32:20;16.90;85.00
13572;DHT22;6857;53.484;10.216;2023-04-19T13:34:45;16.60;84.80
13572;DHT22;6857;53.484;10.216;2023-04-19T13:37:11;16.70;85.40
13572;DHT22;6857;53.484;10.216;2023-04-19T13:39:37;16.80;86.00
13572;DHT22;6857;53.484;10.216;2023-04-19T13:42:02;16.50;83.20
13572;DHT22;6857;53.484;10.216;2023-04-19T13:44:28;16.00;84.20
13572;DHT22;6857;53.484;10.216;2023-04-19T13:46:54;16.40;84.10
13572;DHT22;6857;53.484;10.216;2023-04-19T13:49:20;16.90;82.20
13572;DHT22;6857;53.484;10.216;2023-04-19T13:51:45;17.00;81.10
13572;DHT22;6857;53.484;10.216;2023-04-19T13:54:11;16.20;83.10
13572;DHT22;6857;53.484;10.216;2023-04-19T13:56:36;16.10;84.00
13572;DHT22;6857;53.484;10.216;2023-04-19T13:59:02;15.80;84.70
13572;DHT22;6857;53.484;10.216;2023-04-19T14:01:27;15.80;83.10
13572;DHT22;6857;53.484;10.216;2023-04-19T14:03:53;16.00;83.90
13572;DHT22;6857;53.484;10.216;2023-04-19T14:06:19;16.20;82.50
13572;DHT22;6857;53.484;10.216;2023-04-19T14:08:44;16.00;83.30
13572;DHT22;6857;53.484;10.216;2023-04-19T14:11:10;16.10;84.80
13572;DHT22;6857;53.484;10.216;2023-04-19T14:13:36;16.30;85.80
13572;DHT22;6857;53.484;10.216;2023-04-19T14:16:02;16.30;85.70
13572;DHT22;6857;53.484;10.216;2023-04-19T14:18:28;16.20;86.60
13572;DHT22;6857;53.484;10.216;2023-04-19T14:20:54;16.30;86.20
13572;DHT22;6857;53.484;10.216;2023-04-19T14:23:19;16.40;86.70
13572;DHT22;6857;53.484;10.216;2023-04-19T14:25:45;16.60;87.10
13572;DHT22;6857;53.484;10.216;2023-04-19T14:28:10;16.60;87.90
13572;DHT22;6857;53.484;10.216;2023-04-19T14:30:37;16.80;87.60
13572;DHT22;6857;53.484;10.216;2023-04-19T14:33:03;16.60;87.20
